West Bend, WI (53095)

8:15 AM CDT on March 30, 2017 (GMT -0500)
The Core | | Change Station

Elev 942 ft 43.43 °N, 88.19 °W | Updated 4 seconds ago

Light Rain
Light Rain
36.3 °F
Feels Like 30 °F
N
8.7
Wind Variable Wind from ENE
Gusts 12.3 mph

Today
High -- | Low -- °F
--% Chance of Precip.
Yesterday
High -- | Low -- °F
Precip. -- in
Pressure 29.92 in
Visibility 2.5 miles
Clouds Overcast 900 ft
Windchill 30 °F
Dew Point 36 °F
Humidity 99%
Rainfall 0.30 in
Snow Depth Not available.
6:37 AM 7:17 PM
Waxing Crescent, 8% visible
METAR KETB 301255Z AUTO 08013KT 2 1/2SM -RA OVC009 01/01 A2992 RMK AO2
Pressure 29.92 in
Visibility 2.5 miles
Clouds Overcast 900 ft
Windchill 30 °F
Dew Point 36 °F
Humidity 99%
Rainfall 0.30 in
Snow Depth Not available.
6:37 AM 7:17 PM
Waxing Crescent, 8% visible
METAR KETB 301255Z AUTO 08013KT 2 1/2SM -RA OVC009 01/01 A2992 RMK AO2

Get Severe Weather Alerts

Thanks for signing up!

Be on the lookout for a verification email in your inbox.

You'll start receiving the daily forecast at 8 AM.

×

10-Day Weather Forecast

Almanac

Astronomy

Mar. 30, 2017 Rise Set
Actual Time
Civil Twilight
Nautical Twilight
Astronomical Twilight
Moon
Length of Visible Light
Length of Day
Tomorrow will be .
, % of the Moon is Illuminated

Today's Extremes

State Highs State Lows

Community

WunderPhotos

Upload Photos

1,962,540 photos uploaded!

WunderBlog® & News

Nearby

Air Quality

  Air Quality AQ Index Pollutant
Not available.

Snow Depth

Station Depth Elevation

Earthquake Activity

City Distance Mag. Time & Date
Minimum magnitude displayed is 2.5.

Earthquake Activity

City Distance Mag. Time & Date
Minimum magnitude displayed is 2.5.

Coastal Water Temperatures

Place Temperature

Stations

Nearby Weather Stations

Station Location Temp. Windchill Dew Point Humidity Wind Precip. Elev Updated Type
                   

Watches & Warnings

There are currently no watches in effect.